createdAt,value
2019-04-23T00:00:13.937Z,52.70
2019-04-23T00:02:48.850Z,52.64
2019-04-23T00:05:31.310Z,52.49
2019-04-23T00:07:56.148Z,52.51
2019-04-23T00:10:30.365Z,52.62
2019-04-23T00:12:59.354Z,52.36
2019-04-23T00:15:45.432Z,52.48
2019-04-23T00:18:12.309Z,52.50
2019-04-23T00:20:49.454Z,52.79
2019-04-23T00:23:18.986Z,52.62
2019-04-23T00:25:57.265Z,52.54
2019-04-23T00:28:30.157Z,52.40
2019-04-23T00:33:30.261Z,52.23
2019-04-23T00:36:05.257Z,52.46
2019-04-23T00:38:38.930Z,52.34
2019-04-23T00:41:09.425Z,52.27
2019-04-23T00:43:48.652Z,52.10
2019-04-23T00:46:24.888Z,52.34
2019-04-23T00:48:57.766Z,52.06
2019-04-23T00:51:27.144Z,52.21
2019-04-23T00:54:00.204Z,52.17
2019-04-23T00:56:41.681Z,52.45
2019-04-23T00:59:08.353Z,52.43
2019-04-23T01:01:47.767Z,52.27
2019-04-23T01:04:11.835Z,52.43
2019-04-23T01:06:46.066Z,52.29
2019-04-23T01:09:14.245Z,52.19
2019-04-23T01:11:48.141Z,52.37
2019-04-23T01:14:20.293Z,52.35
2019-04-23T01:16:48.428Z,52.16
2019-04-23T01:21:45.435Z,52.05
2019-04-23T01:24:20.275Z,51.86
2019-04-23T01:27:35.883Z,51.94
2019-04-23T01:29:50.613Z,51.98
2019-04-23T01:32:26.826Z,51.96
2019-04-23T01:35:09.675Z,51.75
2019-04-23T01:37:35.222Z,51.46
2019-04-23T01:40:07.717Z,51.19
2019-04-23T01:42:40.572Z,51.19
2019-04-23T01:45:26.056Z,51.13
2019-04-23T01:50:20.542Z,51.09
2019-04-23T01:52:55.136Z,50.79
2019-04-23T01:55:33.075Z,50.91
2019-04-23T02:00:34.093Z,51.53
2019-04-23T02:03:12.952Z,50.82
2019-04-23T02:05:43.275Z,50.87
2019-04-23T02:08:12.885Z,50.90
2019-04-23T02:11:02.824Z,51.09
2019-04-23T02:13:28.575Z,50.98
2019-04-23T02:15:54.012Z,51.09
2019-04-23T02:18:33.876Z,50.92
2019-04-23T02:21:03.538Z,50.71
2019-04-23T02:23:38.893Z,50.97
2019-04-23T02:26:10.651Z,51.34
2019-04-23T02:28:47.480Z,50.97
2019-04-23T02:31:43.741Z,51.24
2019-04-23T02:36:24.575Z,51.27
2019-04-23T02:38:57.958Z,51.44
2019-04-23T02:41:35.130Z,51.15
2019-04-23T02:46:40.951Z,51.45
2019-04-23T02:49:17.733Z,51.64
2019-04-23T02:52:10.547Z,51.61
2019-04-23T02:54:48.333Z,51.74
2019-04-23T02:57:09.349Z,51.73
2019-04-23T03:02:19.350Z,51.74
2019-04-23T03:07:13.972Z,51.82
2019-04-23T03:09:45.228Z,52.28
2019-04-23T03:14:52.886Z,52.24
2019-04-23T03:17:15.140Z,52.49
2019-04-23T03:22:42.178Z,52.15
2019-04-23T03:25:12.600Z,52.50
2019-04-23T03:30:30.065Z,52.74
2019-04-23T03:35:15.983Z,52.56
2019-04-23T03:40:43.093Z,52.71
2019-04-23T03:43:12.297Z,52.65
2019-04-23T03:45:55.823Z,52.76
2019-04-23T03:48:17.904Z,52.79
2019-04-23T03:50:44.036Z,52.73
2019-04-23T03:56:12.538Z,52.68
2019-04-23T04:01:07.569Z,52.71
2019-04-23T04:06:14.226Z,52.45
2019-04-23T04:11:14.543Z,52.66
2019-04-23T04:14:10.229Z,52.60
2019-04-23T04:19:09.253Z,52.52
2019-04-23T04:26:46.834Z,52.70
2019-04-23T04:36:58.434Z,52.35
2019-04-23T04:39:26.647Z,52.29
2019-04-23T04:49:41.429Z,51.98
2019-04-23T04:54:24.722Z,51.48
2019-04-23T04:57:24.165Z,51.37
2019-04-23T04:59:53.982Z,51.42
2019-04-23T05:05:01.511Z,51.08
2019-04-23T05:10:09.313Z,50.91
2019-04-23T05:15:04.633Z,51.03
2019-04-23T05:17:55.242Z,50.31
2019-04-23T05:20:16.975Z,50.23
2019-04-23T05:22:52.649Z,50.37
2019-04-23T05:25:11.001Z,49.91
2019-04-23T05:28:02.798Z,50.39
2019-04-23T05:30:25.128Z,49.89
2019-04-23T05:33:02.620Z,49.48
2019-04-23T05:35:59.189Z,50.19
2019-04-23T05:40:45.347Z,49.31
2019-04-23T05:43:08.182Z,49.21
2019-04-23T05:45:40.203Z,49.02
2019-04-23T05:48:19.399Z,48.82
2019-04-23T05:51:00.840Z,49.13
2019-04-23T06:01:21.570Z,47.92
2019-04-23T06:03:38.673Z,47.20
2019-04-23T06:06:21.184Z,47.22
2019-04-23T06:08:56.382Z,47.20
2019-04-23T06:11:28.449Z,46.94
2019-04-23T06:16:36.391Z,46.35
2019-04-23T06:19:07.430Z,46.32
2019-04-23T06:21:44.736Z,46.48
2019-04-23T06:24:18.342Z,46.34
2019-04-23T06:26:45.498Z,46.62
2019-04-23T06:37:02.198Z,46.29
2019-04-23T06:39:36.639Z,46.01
2019-04-23T06:42:20.859Z,46.44
2019-04-23T06:44:43.069Z,45.95
2019-04-23T06:47:16.699Z,46.32
2019-04-23T06:49:52.312Z,45.27
2019-04-23T06:52:24.873Z,45.81
2019-04-23T06:55:06.412Z,44.93
2019-04-23T06:57:42.620Z,45.15
2019-04-23T07:00:02.440Z,45.63
2019-04-23T07:02:42.048Z,45.68
2019-04-23T07:05:15.873Z,44.80
2019-04-23T07:07:54.813Z,44.87
2019-04-23T07:10:18.440Z,45.24
2019-04-23T07:12:50.449Z,44.34
2019-04-23T07:15:33.249Z,44.58
2019-04-23T07:18:00.674Z,44.96
2019-04-23T07:20:33.514Z,44.31
2019-04-23T07:25:38.955Z,44.83
2019-04-23T07:28:19.449Z,44.70
2019-04-23T07:30:49.623Z,44.38
2019-04-23T07:33:20.858Z,45.56
2019-04-23T07:35:51.681Z,44.60
2019-04-23T07:38:44.249Z,44.71
2019-04-23T07:41:09.725Z,44.55
2019-04-23T07:43:37.672Z,44.12
2019-04-23T07:46:20.192Z,44.82
2019-04-23T07:48:41.879Z,43.53
2019-04-23T07:51:20.921Z,43.63
2019-04-23T07:54:16.035Z,43.27
2019-04-23T07:57:15.319Z,44.10
2019-04-23T07:59:43.067Z,43.74
2019-04-23T08:02:19.402Z,43.52
2019-04-23T08:05:00.849Z,42.47
2019-04-23T08:07:28.195Z,42.74
2019-04-23T08:10:02.010Z,42.96
2019-04-23T08:15:07.482Z,42.90
2019-04-23T08:17:34.577Z,42.42
2019-04-23T08:20:19.411Z,42.80
2019-04-23T08:22:45.753Z,41.96
2019-04-23T08:25:29.967Z,42.32
2019-04-23T08:28:01.698Z,41.75
2019-04-23T08:30:33.455Z,41.17
2019-04-23T08:33:13.942Z,41.15
2019-04-23T08:35:42.944Z,42.65
2019-04-23T08:38:24.616Z,41.26
2019-04-23T08:40:57.188Z,40.82
2019-04-23T08:43:36.060Z,40.39
2019-04-23T08:46:01.923Z,40.59
2019-04-23T08:48:34.190Z,40.89
2019-04-23T08:51:21.051Z,40.58
2019-04-23T08:53:40.851Z,40.03
2019-04-23T08:56:24.092Z,39.69
2019-04-23T08:59:11.007Z,39.90
2019-04-23T09:01:52.469Z,39.63
2019-04-23T09:03:56.111Z,39.30
2019-04-23T09:06:47.209Z,40.62
2019-04-23T09:09:06.935Z,38.99
2019-04-23T09:11:50.900Z,39.55
2019-04-23T09:14:05.181Z,40.22
2019-04-23T09:16:52.828Z,39.60
2019-04-23T09:19:24.006Z,40.16
2019-04-23T09:22:05.951Z,39.45
2019-04-23T09:24:38.264Z,39.07
2019-04-23T09:27:11.749Z,39.36
2019-04-23T09:29:46.024Z,39.42
2019-04-23T10:13:26.213Z,39.43
2019-04-23T10:15:58.145Z,38.42
2019-04-23T10:18:30.919Z,38.26
2019-04-23T10:21:03.383Z,39.28
2019-04-23T10:23:34.406Z,38.53
2019-04-23T10:26:06.158Z,39.11
2019-04-23T10:28:40.219Z,39.40
2019-04-23T10:31:12.700Z,38.21
2019-04-23T10:33:44.024Z,38.25
2019-04-23T10:36:19.460Z,38.29
2019-04-23T10:38:55.991Z,38.32
2019-04-23T10:41:22.334Z,37.86
2019-04-23T10:43:56.677Z,38.28
2019-04-23T10:46:53.669Z,37.63
2019-04-23T10:49:51.045Z,37.87
2019-04-23T10:52:20.515Z,37.22
2019-04-23T10:57:14.821Z,37.62
2019-04-23T11:09:57.066Z,38.51
2019-04-23T11:12:37.041Z,38.70
2019-04-23T11:20:27.429Z,37.89
2019-04-23T11:22:45.109Z,38.18
2019-04-23T11:25:29.987Z,38.56
2019-04-23T11:27:48.953Z,38.96
2019-04-23T11:30:39.032Z,38.72
2019-04-23T11:35:39.544Z,38.93
2019-04-23T11:38:22.057Z,37.82
2019-04-23T11:40:33.914Z,37.96
2019-04-23T11:45:50.214Z,37.61
2019-04-23T11:53:36.038Z,37.22
2019-04-23T11:56:18.936Z,37.48
2019-04-23T12:01:23.651Z,37.36
2019-04-23T12:04:00.653Z,37.52
2019-04-23T12:08:51.060Z,37.52
2019-04-23T12:11:52.345Z,38.03
2019-04-23T12:14:03.615Z,38.19
2019-04-23T12:16:45.034Z,37.44
2019-04-23T12:19:23.324Z,36.90
2019-04-23T12:21:45.414Z,36.42
2019-04-23T12:24:16.260Z,37.05
2019-04-23T12:26:53.897Z,36.97
2019-04-23T12:29:21.086Z,36.91
2019-04-23T12:31:56.678Z,36.93
2019-04-23T12:34:25.083Z,37.05
2019-04-23T12:36:50.963Z,36.84
2019-04-23T12:39:32.986Z,36.98
2019-04-23T12:42:21.729Z,36.97
2019-04-23T12:44:38.729Z,37.21
2019-04-23T12:47:18.843Z,37.18
2019-04-23T12:52:14.302Z,37.77
2019-04-23T12:54:59.855Z,37.92
2019-04-23T12:57:18.672Z,37.91
2019-04-23T13:02:25.854Z,38.16
2019-04-23T13:04:52.425Z,37.90
2019-04-23T13:07:33.516Z,37.09
2019-04-23T13:09:58.586Z,37.61
2019-04-23T13:12:50.309Z,37.99
2019-04-23T13:17:44.499Z,38.50
2019-04-23T13:20:15.244Z,38.48
2019-04-23T13:25:18.183Z,38.63
2019-04-23T13:28:02.931Z,38.28
2019-04-23T13:30:34.048Z,38.39
2019-04-23T13:33:02.685Z,38.61
2019-04-23T13:35:40.731Z,39.41
2019-04-23T13:38:01.450Z,38.72
2019-04-23T13:40:33.767Z,37.67
2019-04-23T13:43:06.967Z,38.01
2019-04-23T13:45:56.357Z,37.63
2019-04-23T13:48:07.979Z,38.58
2019-04-23T13:53:20.979Z,38.46
2019-04-23T13:55:37.984Z,38.25
2019-04-23T14:00:58.175Z,39.06
2019-04-23T14:03:31.555Z,38.49
2019-04-23T14:05:59.526Z,38.94
2019-04-23T14:08:41.605Z,38.40
2019-04-23T14:10:55.433Z,38.22
2019-04-23T14:13:43.974Z,37.91
2019-04-23T14:16:03.616Z,37.38
2019-04-23T14:21:14.163Z,37.76
2019-04-23T14:23:52.481Z,37.63
2019-04-23T14:26:29.675Z,36.97
2019-04-23T14:29:19.109Z,37.20
2019-04-23T14:31:28.328Z,37.08
2019-04-23T14:39:06.440Z,37.34
2019-04-23T14:41:52.507Z,35.76
2019-04-23T14:47:05.032Z,36.42
2019-04-23T14:49:25.778Z,36.66
2019-04-23T14:52:00.221Z,36.94
2019-04-23T14:55:01.371Z,36.69
2019-04-23T14:57:11.241Z,36.51
2019-04-23T14:59:41.175Z,36.95
2019-04-23T15:02:14.552Z,36.64
2019-04-23T15:07:22.972Z,37.13
2019-04-23T15:12:30.695Z,36.64
2019-04-23T15:15:06.413Z,37.44
2019-04-23T15:17:36.203Z,37.70
2019-04-23T15:20:11.621Z,37.84
2019-04-23T15:30:24.840Z,38.79
2019-04-23T15:33:11.801Z,38.72
2019-04-23T15:38:34.039Z,39.17
2019-04-23T15:41:07.372Z,39.13
2019-04-23T15:43:41.176Z,39.38
2019-04-23T15:46:21.901Z,39.27
2019-04-23T15:48:53.985Z,39.14
2019-04-23T15:51:28.239Z,39.48
2019-04-23T15:53:53.174Z,39.16
2019-04-23T15:56:38.479Z,39.39
2019-04-23T15:59:12.838Z,39.32
2019-04-23T16:01:34.140Z,39.72
2019-04-23T16:03:41.884Z,39.41
2019-04-23T16:06:16.544Z,39.35
2019-04-23T16:09:06.242Z,39.17
2019-04-23T16:17:04.068Z,39.14
2019-04-23T16:22:06.703Z,39.67
2019-04-23T16:24:56.010Z,39.73
2019-04-23T16:29:55.509Z,39.53
2019-04-23T16:34:54.083Z,39.80
2019-04-23T16:37:29.247Z,40.02
2019-04-23T16:40:03.485Z,40.00
2019-04-23T16:42:29.275Z,39.99
2019-04-23T16:45:11.059Z,40.15
2019-04-23T16:47:43.536Z,40.63
2019-04-23T16:52:51.542Z,41.10
2019-04-23T16:55:24.144Z,41.57
2019-04-23T16:58:06.306Z,43.69
2019-04-23T17:00:30.552Z,46.58
2019-04-23T17:03:12.769Z,47.29
2019-04-23T17:05:39.485Z,46.86
2019-04-23T17:08:36.189Z,46.44
2019-04-23T17:11:00.404Z,46.57
2019-04-23T17:13:34.559Z,46.68
2019-04-23T17:16:15.113Z,47.06
2019-04-23T17:18:41.795Z,46.83
2019-04-23T17:21:18.045Z,47.25
2019-04-23T17:24:15.401Z,47.30
2019-04-23T17:26:26.003Z,47.09
2019-04-23T17:29:08.693Z,46.38
2019-04-23T17:31:35.624Z,46.42
2019-04-23T17:34:18.718Z,45.99
2019-04-23T17:36:40.379Z,45.39
2019-04-23T17:39:21.122Z,45.64
2019-04-23T17:42:06.834Z,44.82
2019-04-23T17:46:56.282Z,44.64
2019-04-23T17:49:36.767Z,44.62
2019-04-23T17:52:05.114Z,44.21
2019-04-23T17:54:41.134Z,44.18
2019-04-23T18:00:04.862Z,43.56
2019-04-23T18:02:49.384Z,43.66
2019-04-23T18:05:09.825Z,44.06
2019-04-23T18:10:25.348Z,44.04
2019-04-23T18:12:57.608Z,43.82
2019-04-23T18:18:00.646Z,43.95
2019-04-23T18:20:34.831Z,43.98
2019-04-23T18:23:06.228Z,44.20
2019-04-23T18:25:43.351Z,44.22
2019-04-23T18:28:08.870Z,44.51
2019-04-23T18:31:03.595Z,44.84
2019-04-23T18:33:54.367Z,45.07
2019-04-23T18:35:54.911Z,45.35
2019-04-23T18:38:39.960Z,45.59
2019-04-23T18:41:33.722Z,46.01
2019-04-23T18:43:51.164Z,46.12
2019-04-23T18:46:32.049Z,46.26
2019-04-23T18:48:54.671Z,46.49
2019-04-23T18:51:33.920Z,46.51
2019-04-23T18:54:01.139Z,46.67
2019-04-23T18:56:53.426Z,46.77
2019-04-23T18:59:09.004Z,46.89
2019-04-23T19:01:48.742Z,46.94
2019-04-23T19:06:44.056Z,46.89
2019-04-23T19:09:38.576Z,46.76
2019-04-23T19:12:25.177Z,46.50
2019-04-23T19:24:45.267Z,45.94
2019-04-23T19:29:59.859Z,45.97
2019-04-23T19:32:24.463Z,46.08
2019-04-23T19:35:16.131Z,45.63
2019-04-23T19:40:24.515Z,45.59
2019-04-23T19:45:29.167Z,45.48
2019-04-23T19:50:43.721Z,45.64
2019-04-23T19:53:22.840Z,45.04
2019-04-23T19:55:57.096Z,44.97
2019-04-23T19:58:34.510Z,44.90
2019-04-23T20:03:37.127Z,45.32
2019-04-23T20:06:14.488Z,45.30
2019-04-23T20:08:53.273Z,45.58
2019-04-23T20:11:08.072Z,45.61
2019-04-23T20:13:50.564Z,45.46
2019-04-23T20:16:26.010Z,45.49
2019-04-23T20:21:23.247Z,45.56
2019-04-23T20:24:04.228Z,46.10
2019-04-23T20:26:41.329Z,46.01
2019-04-23T20:29:19.612Z,46.30
2019-04-23T20:39:26.706Z,46.60
2019-04-23T20:47:24.403Z,46.92
2019-04-23T20:52:32.030Z,47.14
2019-04-23T20:55:01.139Z,46.76
2019-04-23T21:08:00.816Z,46.89
2019-04-23T21:10:33.967Z,46.88
2019-04-23T21:15:42.143Z,46.97
2019-04-23T21:18:15.977Z,47.30
2019-04-23T21:20:41.251Z,47.27
2019-04-23T21:23:21.282Z,47.29
2019-04-23T21:25:47.512Z,47.48
2019-04-23T21:28:38.214Z,47.81
2019-04-23T21:31:27.481Z,47.71
2019-04-23T21:36:13.396Z,48.20
2019-04-23T21:41:17.202Z,48.18
2019-04-23T21:46:47.631Z,48.51
2019-04-23T21:51:45.553Z,49.04
2019-04-23T21:53:58.481Z,49.11
2019-04-23T21:56:42.731Z,48.84
2019-04-23T21:59:06.990Z,49.45
2019-04-23T22:09:34.718Z,49.19
2019-04-23T22:14:40.558Z,49.13
2019-04-23T22:17:25.966Z,49.31
2019-04-23T22:19:55.653Z,49.44
2019-04-23T22:22:17.018Z,48.72
2019-04-23T22:24:53.076Z,48.74
2019-04-23T22:27:16.778Z,49.00
2019-04-23T22:30:01.207Z,48.98
2019-04-23T22:32:34.319Z,49.07
2019-04-23T22:35:05.922Z,48.99
2019-04-23T22:37:32.384Z,49.05
2019-04-23T22:40:04.676Z,49.16
2019-04-23T22:43:12.804Z,49.10
2019-04-23T22:47:47.972Z,48.43
2019-04-23T22:50:11.250Z,48.67
2019-04-23T22:52:54.054Z,49.03
2019-04-23T22:55:40.358Z,48.67
2019-04-23T22:58:05.123Z,48.92
2019-04-23T23:00:49.762Z,48.69
2019-04-23T23:03:06.365Z,48.74
2019-04-23T23:05:53.522Z,49.09
2019-04-23T23:13:20.748Z,48.93
2019-04-23T23:15:53.292Z,48.68
2019-04-23T23:18:28.458Z,48.69
2019-04-23T23:20:59.641Z,48.82
2019-04-23T23:26:14.347Z,49.36
2019-04-23T23:31:22.427Z,49.05
2019-04-23T23:41:25.981Z,49.47
2019-04-23T23:44:23.983Z,49.47
2019-04-23T23:46:37.580Z,49.64
2019-04-23T23:49:08.497Z,49.53
2019-04-23T23:51:39.737Z,49.77
2019-04-23T23:54:21.605Z,49.73
2019-04-23T23:56:49.772Z,49.70
